createdAt,value
2022-09-09T00:00:55.106Z,100195.56
2022-09-09T00:04:09.615Z,100188.03
2022-09-09T00:07:10.858Z,100186.34
2022-09-09T00:09:50.247Z,100186.88
2022-09-09T00:12:30.798Z,100176.94
2022-09-09T00:15:12.780Z,100182.78
2022-09-09T00:18:02.803Z,100188.16
2022-09-09T00:20:36.922Z,100177.13
2022-09-09T00:23:20.834Z,100172.56
2022-09-09T00:26:02.403Z,100177.91
2022-09-09T00:28:33.344Z,100166.59
2022-09-09T00:31:14.951Z,100168.91
2022-09-09T00:33:44.287Z,100164.28
2022-09-09T00:36:19.522Z,100162.19
2022-09-09T00:38:52.309Z,100158.66
2022-09-09T00:41:57.572Z,100160.63
2022-09-09T00:44:35.584Z,100157.94
2022-09-09T00:47:27.810Z,100155.56
2022-09-09T00:50:14.287Z,100160.63
2022-09-09T00:52:56.862Z,100157.63
2022-09-09T00:55:54.644Z,100153.78
2022-09-09T00:58:22.207Z,100153.28
2022-09-09T01:01:19.674Z,100144.25
2022-09-09T01:03:54.912Z,100150.38
2022-09-09T01:06:40.717Z,100147.81
2022-09-09T01:09:55.867Z,100148.53
2022-09-09T01:12:27.936Z,100160.72
2022-09-09T01:15:11.321Z,100159.28
2022-09-09T01:18:02.402Z,100150.13
2022-09-09T01:20:45.536Z,100145.25
2022-09-09T01:23:45.236Z,100153.66
2022-09-09T01:26:44.616Z,100145.88
2022-09-09T01:29:26.439Z,100143.69
2022-09-09T01:32:00.753Z,100140.44
2022-09-09T01:34:38.900Z,100139.91
2022-09-09T01:37:13.042Z,100141.47
2022-09-09T01:39:44.388Z,100140.63
2022-09-09T01:42:17.193Z,100142.56
2022-09-09T01:44:46.137Z,100132.16
2022-09-09T01:47:15.706Z,100140.13
2022-09-09T01:50:19.584Z,100134.53
2022-09-09T01:52:50.625Z,100153.91
2022-09-09T01:55:30.818Z,100140.03
2022-09-09T01:58:25.180Z,100137.69
2022-09-09T02:01:04.038Z,100140.97
2022-09-09T02:03:34.771Z,100130.50
2022-09-09T02:06:38.707Z,100124.59
2022-09-09T02:09:23.546Z,100137.69
2022-09-09T02:12:00.086Z,100137.56
2022-09-09T02:14:42.281Z,100129.78
2022-09-09T02:17:18.101Z,100136.06
2022-09-09T02:20:08.673Z,100136.53
2022-09-09T02:22:46.709Z,100124.88
2022-09-09T02:25:20.637Z,100132.19
2022-09-09T02:27:52.341Z,100124.59
2022-09-09T02:30:21.460Z,100135.19
2022-09-09T02:32:58.318Z,100133.00
2022-09-09T02:35:40.716Z,100125.00
2022-09-09T02:38:13.418Z,100133.19
2022-09-09T02:40:44.821Z,100133.66
2022-09-09T02:43:15.708Z,100139.69
2022-09-09T02:46:11.301Z,100129.09
2022-09-09T02:48:57.614Z,100127.66
2022-09-09T02:52:01.772Z,100139.97
2022-09-09T02:54:37.123Z,100139.31
2022-09-09T02:57:17.050Z,100132.44
2022-09-09T02:59:49.717Z,100133.44
2022-09-09T03:02:17.809Z,100132.22
2022-09-09T03:04:52.760Z,100139.38
2022-09-09T03:07:21.686Z,100142.41
2022-09-09T03:09:51.094Z,100137.59
2022-09-09T03:12:18.772Z,100137.63
2022-09-09T03:14:47.304Z,100142.88
2022-09-09T03:17:15.635Z,100134.34
2022-09-09T03:19:51.509Z,100134.59
2022-09-09T03:22:19.623Z,100129.47
2022-09-09T03:24:48.007Z,100127.28
2022-09-09T03:27:16.035Z,100127.06
2022-09-09T03:29:44.960Z,100122.53
2022-09-09T03:32:18.509Z,100125.94
2022-09-09T03:34:50.606Z,100126.28
2022-09-09T03:37:19.164Z,100124.50
2022-09-09T03:39:47.260Z,100129.75
2022-09-09T03:42:20.766Z,100124.09
2022-09-09T03:44:52.553Z,100123.13
2022-09-09T03:47:23.721Z,100124.09
2022-09-09T03:49:55.695Z,100120.31
2022-09-09T03:52:26.048Z,100118.28
2022-09-09T03:54:55.160Z,100115.19
2022-09-09T03:57:23.465Z,100111.84
2022-09-09T03:59:51.676Z,100117.81
2022-09-09T04:02:19.366Z,100111.53
2022-09-09T04:04:47.234Z,100125.44
2022-09-09T04:07:15.606Z,100127.38
2022-09-09T04:09:43.544Z,100119.72
2022-09-09T04:12:14.191Z,100121.28
2022-09-09T04:14:42.471Z,100127.25
2022-09-09T04:17:10.183Z,100124.91
2022-09-09T04:19:38.957Z,100130.78
2022-09-09T04:22:06.523Z,100127.50
2022-09-09T04:24:34.708Z,100131.72
2022-09-09T04:27:03.170Z,100130.66
2022-09-09T04:29:32.083Z,100128.50
2022-09-09T04:31:59.910Z,100128.31
2022-09-09T04:34:27.871Z,100133.69
2022-09-09T04:36:57.269Z,100125.03
2022-09-09T04:39:25.659Z,100130.41
2022-09-09T04:41:54.143Z,100130.28
2022-09-09T04:44:23.812Z,100127.59
2022-09-09T04:46:51.739Z,100128.56
2022-09-09T04:49:19.546Z,100124.13
2022-09-09T04:51:48.014Z,100131.69
2022-09-09T04:54:16.014Z,100127.47
2022-09-09T04:56:45.675Z,100130.16
2022-09-09T04:59:13.629Z,100137.59
2022-09-09T05:01:46.644Z,100135.09
2022-09-09T05:04:17.127Z,100140.22
2022-09-09T05:06:45.106Z,100139.41
2022-09-09T05:09:13.964Z,100142.19
2022-09-09T05:11:42.889Z,100140.06
2022-09-09T05:14:33.427Z,100144.59
2022-09-09T05:17:02.675Z,100146.84
2022-09-09T05:19:32.142Z,100147.75
2022-09-09T05:21:59.775Z,100144.13
2022-09-09T05:24:35.864Z,100145.56
2022-09-09T05:27:06.951Z,100152.88
2022-09-09T05:29:35.010Z,100143.09
2022-09-09T05:32:05.709Z,100137.00
2022-09-09T05:34:33.870Z,100150.81
2022-09-09T05:37:02.222Z,100148.34
2022-09-09T05:39:30.441Z,100150.69
2022-09-09T05:41:58.082Z,100152.25
2022-09-09T05:44:28.567Z,100147.94
2022-09-09T05:46:57.004Z,100151.22
2022-09-09T05:49:26.559Z,100159.16
2022-09-09T05:51:54.728Z,100156.25
2022-09-09T05:54:24.594Z,100150.78
2022-09-09T05:56:54.627Z,100155.41
2022-09-09T05:59:24.256Z,100159.72
2022-09-09T06:01:54.190Z,100159.72
2022-09-09T06:04:31.617Z,100163.13
2022-09-09T06:07:02.036Z,100162.22
2022-09-09T06:09:31.508Z,100163.41
2022-09-09T06:11:59.378Z,100165.69
2022-09-09T06:14:28.305Z,100172.00
2022-09-09T06:16:58.937Z,100179.22
2022-09-09T06:19:31.788Z,100169.38
2022-09-09T06:22:00.880Z,100174.69
2022-09-09T06:24:31.294Z,100179.34
2022-09-09T06:27:00.371Z,100176.63
2022-09-09T06:29:31.696Z,100188.00
2022-09-09T06:31:59.955Z,100186.84
2022-09-09T06:34:29.374Z,100190.69
2022-09-09T06:36:59.570Z,100186.56
2022-09-09T06:39:33.355Z,100188.13
2022-09-09T06:42:01.646Z,100191.69
2022-09-09T06:44:53.381Z,100189.06
2022-09-09T06:47:50.631Z,100189.69
2022-09-09T06:50:20.802Z,100194.75
2022-09-09T06:52:49.882Z,100199.41
2022-09-09T06:55:18.624Z,100193.69
2022-09-09T06:57:46.887Z,100197.69
2022-09-09T07:00:19.294Z,100197.69
2022-09-09T07:02:47.778Z,100200.06
2022-09-09T07:05:16.394Z,100202.75
2022-09-09T07:07:45.571Z,100196.16
2022-09-09T07:10:15.873Z,100205.38
2022-09-09T07:12:45.301Z,100201.69
2022-09-09T07:15:14.808Z,100206.41
2022-09-09T07:17:46.068Z,100203.91
2022-09-09T07:20:14.382Z,100204.56
2022-09-09T07:22:42.641Z,100215.72
2022-09-09T07:25:12.134Z,100208.16
2022-09-09T07:27:40.708Z,100222.25
2022-09-09T07:30:09.156Z,100216.97
2022-09-09T07:32:37.318Z,100208.78
2022-09-09T07:35:05.308Z,100229.03
2022-09-09T07:37:33.327Z,100234.47
2022-09-09T07:40:01.629Z,100225.34
2022-09-09T07:42:31.500Z,100231.59
2022-09-09T07:45:00.387Z,100233.28
2022-09-09T07:47:28.137Z,100233.56
2022-09-09T07:49:56.930Z,100235.16
2022-09-09T07:52:30.107Z,100240.22
2022-09-09T07:55:03.214Z,100234.97
2022-09-09T07:57:32.538Z,100236.69
2022-09-09T08:00:00.240Z,100245.50
2022-09-09T08:02:30.396Z,100245.06
2022-09-09T08:04:58.618Z,100245.34
2022-09-09T08:07:27.178Z,100256.75
2022-09-09T08:09:56.736Z,100259.84
2022-09-09T08:12:29.691Z,100257.66
2022-09-09T08:14:58.061Z,100260.28
2022-09-09T08:17:29.821Z,100254.75
2022-09-09T08:20:05.998Z,100258.28
2022-09-09T08:22:35.290Z,100258.00
2022-09-09T08:25:03.351Z,100246.91
2022-09-09T08:27:34.982Z,100252.50
2022-09-09T08:30:02.924Z,100251.25
2022-09-09T08:32:31.686Z,100253.81
2022-09-09T08:35:01.609Z,100257.28
2022-09-09T08:37:30.683Z,100265.41
2022-09-09T08:39:58.608Z,100264.88
2022-09-09T08:43:02.669Z,100272.28
2022-09-09T08:45:51.462Z,100281.44
2022-09-09T08:49:00.699Z,100269.66
2022-09-09T08:51:31.802Z,100269.06
2022-09-09T08:54:03.892Z,100278.13
2022-09-09T08:56:34.852Z,100281.53
2022-09-09T08:59:04.689Z,100277.97
2022-09-09T09:02:19.432Z,100282.88
2022-09-09T09:05:04.171Z,100279.91
2022-09-09T09:07:45.827Z,100283.22
2022-09-09T09:10:44.162Z,100281.38
2022-09-09T09:13:44.064Z,100287.50
2022-09-09T09:16:20.508Z,100293.16
2022-09-09T09:18:48.744Z,100291.38
2022-09-09T09:21:51.478Z,100302.91
2022-09-09T09:24:35.836Z,100299.28
2022-09-09T09:27:16.729Z,100304.09
2022-09-09T09:30:20.295Z,100304.88
2022-09-09T09:32:55.375Z,100307.78
2022-09-09T09:35:23.315Z,100305.31
2022-09-09T09:40:58.703Z,100305.56
2022-09-09T09:43:33.615Z,100316.03
2022-09-09T09:46:21.034Z,100306.66
2022-09-09T09:48:59.866Z,100300.38
2022-09-09T09:51:31.223Z,100302.38
2022-09-09T09:54:38.104Z,100310.06
2022-09-09T09:57:17.484Z,100307.28
2022-09-09T09:59:47.830Z,100308.88
2022-09-09T10:02:27.656Z,100308.50
2022-09-09T10:05:07.787Z,100310.41
2022-09-09T10:07:38.417Z,100310.47
2022-09-09T10:10:13.145Z,100312.16
2022-09-09T10:13:02.858Z,100315.13
2022-09-09T10:15:51.224Z,100315.91
2022-09-09T10:18:58.875Z,100317.91
2022-09-09T10:21:58.916Z,100315.25
2022-09-09T10:24:52.697Z,100322.75
2022-09-09T10:27:33.287Z,100321.75
2022-09-09T10:30:40.964Z,100328.41
2022-09-09T10:33:28.769Z,100336.47
2022-09-09T10:36:19.010Z,100333.06
2022-09-09T10:38:49.383Z,100340.88
2022-09-09T10:41:51.551Z,100340.56
2022-09-09T10:44:38.080Z,100339.09
2022-09-09T10:47:36.956Z,100346.22
2022-09-09T10:50:15.612Z,100352.28
2022-09-09T10:53:22.431Z,100345.56
2022-09-09T10:56:01.604Z,100362.91
2022-09-09T10:58:42.377Z,100363.28
2022-09-09T11:01:38.594Z,100368.88
2022-09-09T11:04:14.587Z,100373.44
2022-09-09T11:06:49.258Z,100366.84
2022-09-09T11:09:32.151Z,100376.16
2022-09-09T11:12:04.975Z,100390.25
2022-09-09T11:15:00.447Z,100385.94
2022-09-09T11:17:37.523Z,100382.19
2022-09-09T11:20:12.125Z,100385.16
2022-09-09T11:22:49.932Z,100387.63
2022-09-09T11:25:23.189Z,100387.94
2022-09-09T11:27:57.319Z,100393.50
2022-09-09T11:30:55.642Z,100382.53
2022-09-09T11:33:42.535Z,100389.66
2022-09-09T11:36:38.133Z,100390.88
2022-09-09T11:39:25.696Z,100398.00
2022-09-09T11:41:53.305Z,100397.22
2022-09-09T11:44:31.080Z,100395.69
2022-09-09T11:46:58.712Z,100400.78
2022-09-09T11:49:43.943Z,100402.75
2022-09-09T11:52:27.703Z,100403.53
2022-09-09T11:54:57.324Z,100407.75
2022-09-09T11:57:33.179Z,100405.13
2022-09-09T12:00:01.538Z,100391.94
2022-09-09T12:02:51.344Z,100392.56
2022-09-09T12:05:22.146Z,100391.72
2022-09-09T12:07:56.706Z,100396.47
2022-09-09T12:10:33.986Z,100394.91
2022-09-09T12:13:16.449Z,100396.78
2022-09-09T12:15:54.280Z,100395.22
2022-09-09T12:18:34.917Z,100394.28
2022-09-09T12:21:10.002Z,100403.25
2022-09-09T12:23:41.361Z,100397.63
2022-09-09T12:26:18.179Z,100399.78
2022-09-09T12:29:00.717Z,100408.16
2022-09-09T12:31:40.204Z,100412.19
2022-09-09T12:34:26.438Z,100410.69
2022-09-09T12:37:04.023Z,100409.75
2022-09-09T12:39:58.595Z,100414.72
2022-09-09T12:42:28.085Z,100416.00
2022-09-09T12:44:58.860Z,100413.03
2022-09-09T12:47:37.330Z,100412.09
2022-09-09T12:50:05.431Z,100409.22
2022-09-09T12:52:40.146Z,100410.09
2022-09-09T12:55:09.724Z,100408.63
2022-09-09T12:57:40.174Z,100396.91
2022-09-09T13:00:18.378Z,100383.88
2022-09-09T13:02:49.641Z,100384.22
2022-09-09T13:05:26.092Z,100386.31
2022-09-09T13:08:03.376Z,100391.06
2022-09-09T13:10:52.958Z,100396.06
2022-09-09T13:13:49.883Z,100404.75
2022-09-09T13:16:42.077Z,100401.66
2022-09-09T13:19:16.980Z,100402.25
2022-09-09T13:21:44.789Z,100407.50
2022-09-09T13:24:35.051Z,100408.03
2022-09-09T13:27:05.678Z,100395.94
2022-09-09T13:29:34.218Z,100387.28
2022-09-09T13:32:07.337Z,100397.31
2022-09-09T13:34:37.090Z,100388.03
2022-09-09T13:37:07.640Z,100398.44
2022-09-09T13:39:37.662Z,100395.59
2022-09-09T13:42:07.973Z,100393.38
2022-09-09T13:44:39.545Z,100390.00
2022-09-09T13:47:29.903Z,100380.97
2022-09-09T13:49:57.503Z,100376.91
2022-09-09T13:52:27.809Z,100383.00
2022-09-09T13:54:56.712Z,100385.16
2022-09-09T13:57:26.246Z,100389.16
2022-09-09T14:00:11.741Z,100383.38
2022-09-09T14:02:40.188Z,100395.63
2022-09-09T14:05:08.259Z,100393.03
2022-09-09T14:07:35.895Z,100394.16
2022-09-09T14:10:03.647Z,100403.44
2022-09-09T14:12:31.499Z,100409.56
2022-09-09T14:15:02.135Z,100400.72
2022-09-09T14:17:31.584Z,100396.75
2022-09-09T14:19:59.690Z,100394.84
2022-09-09T14:22:27.545Z,100415.44
2022-09-09T14:24:55.261Z,100412.53
2022-09-09T14:27:23.049Z,100412.38
2022-09-09T14:29:50.818Z,100414.38
2022-09-09T14:32:18.476Z,100410.19
2022-09-09T14:34:46.370Z,100410.97
2022-09-09T14:37:13.993Z,100417.94
2022-09-09T14:39:41.690Z,100414.22
2022-09-09T14:42:12.077Z,100416.09
2022-09-09T14:44:40.047Z,100414.06
2022-09-09T14:47:08.978Z,100417.78
2022-09-09T14:49:39.093Z,100406.59
2022-09-09T14:52:10.360Z,100404.91
2022-09-09T14:54:38.382Z,100408.16
2022-09-09T14:57:05.966Z,100402.22
2022-09-09T14:59:33.585Z,100402.75
2022-09-09T15:02:05.258Z,100410.25
2022-09-09T15:04:33.304Z,100413.66
2022-09-09T15:07:00.856Z,100413.66
2022-09-09T15:09:28.718Z,100417.59
2022-09-09T15:11:56.531Z,100416.41
2022-09-09T15:14:26.028Z,100406.94
2022-09-09T15:16:53.938Z,100408.56
2022-09-09T15:19:22.012Z,100412.75
2022-09-09T15:21:50.185Z,100411.50
2022-09-09T15:24:18.072Z,100416.53
2022-09-09T15:26:45.670Z,100417.53
2022-09-09T15:29:13.652Z,100413.13
2022-09-09T15:31:41.514Z,100415.78
2022-09-09T15:34:09.541Z,100411.88
2022-09-09T15:36:40.746Z,100416.91
2022-09-09T15:39:16.624Z,100419.63
2022-09-09T15:41:49.624Z,100422.91
2022-09-09T15:44:17.829Z,100427.16
2022-09-09T15:46:50.888Z,100427.94
2022-09-09T15:49:26.641Z,100435.16
2022-09-09T15:51:59.579Z,100438.88
2022-09-09T15:54:27.720Z,100430.53
2022-09-09T15:56:58.330Z,100435.94
2022-09-09T15:59:28.785Z,100424.78
2022-09-09T16:01:58.060Z,100428.69
2022-09-09T16:04:26.769Z,100425.44
2022-09-09T16:07:01.945Z,100431.94
2022-09-09T16:09:30.521Z,100436.38
2022-09-09T16:12:01.845Z,100431.66
2022-09-09T16:14:30.023Z,100425.28
2022-09-09T16:16:57.804Z,100428.84
2022-09-09T16:19:26.818Z,100417.31
2022-09-09T16:21:54.676Z,100413.19
2022-09-09T16:24:23.281Z,100416.53
2022-09-09T16:26:54.192Z,100417.91
2022-09-09T16:29:23.297Z,100418.94
2022-09-09T16:31:52.498Z,100413.75
2022-09-09T16:34:20.355Z,100423.03
2022-09-09T16:36:49.516Z,100427.28
2022-09-09T16:39:19.782Z,100421.69
2022-09-09T16:41:49.498Z,100420.78
2022-09-09T16:44:19.826Z,100418.41
2022-09-09T16:46:50.058Z,100421.47
2022-09-09T16:49:18.164Z,100419.06
2022-09-09T16:51:54.127Z,100420.47
2022-09-09T16:54:22.995Z,100418.41
2022-09-09T16:56:50.825Z,100417.22
2022-09-09T16:59:20.753Z,100419.41
2022-09-09T17:01:51.138Z,100413.97
2022-09-09T17:04:26.414Z,100415.13
2022-09-09T17:06:56.863Z,100423.88
2022-09-09T17:09:28.502Z,100419.16
2022-09-09T17:11:56.674Z,100421.72
2022-09-09T17:14:24.859Z,100431.94
2022-09-09T17:16:53.011Z,100435.66
2022-09-09T17:19:21.120Z,100441.50
2022-09-09T17:24:39.505Z,100447.63
2022-09-09T17:27:07.522Z,100442.69
2022-09-09T17:29:37.012Z,100434.41
2022-09-09T17:32:08.987Z,100438.03
2022-09-09T17:34:37.172Z,100435.81
2022-09-09T17:37:06.883Z,100437.50
2022-09-09T17:39:35.215Z,100444.47
2022-09-09T17:42:03.667Z,100440.06
2022-09-09T17:44:33.230Z,100449.72
2022-09-09T17:47:01.577Z,100449.56
2022-09-09T17:49:29.375Z,100450.19
2022-09-09T17:51:57.532Z,100455.16
2022-09-09T17:54:25.600Z,100459.44
2022-09-09T17:56:53.628Z,100459.31
2022-09-09T17:59:21.378Z,100454.16
2022-09-09T18:01:50.999Z,100456.31
2022-09-09T18:04:19.563Z,100458.31
2022-09-09T18:06:50.278Z,100458.00
2022-09-09T18:09:23.352Z,100459.72
2022-09-09T18:11:54.577Z,100458.31
2022-09-09T18:14:31.968Z,100466.44
2022-09-09T18:17:01.127Z,100471.03
2022-09-09T18:19:30.903Z,100470.69
2022-09-09T18:22:01.863Z,100464.66
2022-09-09T18:24:31.406Z,100472.56
2022-09-09T18:26:59.346Z,100481.66
2022-09-09T18:29:27.248Z,100488.81
2022-09-09T18:31:56.198Z,100484.78
2022-09-09T18:34:28.831Z,100484.16
2022-09-09T18:36:58.126Z,100481.00
2022-09-09T18:39:29.718Z,100490.75
2022-09-09T18:42:00.763Z,100490.69
2022-09-09T18:44:35.597Z,100488.63
2022-09-09T18:47:03.796Z,100484.94
2022-09-09T18:49:33.328Z,100483.16
2022-09-09T18:52:02.343Z,100474.69
2022-09-09T18:54:31.734Z,100479.16
2022-09-09T18:57:00.851Z,100483.78
2022-09-09T18:59:28.828Z,100491.53
2022-09-09T19:01:56.669Z,100494.59
2022-09-09T19:04:26.079Z,100485.63
2022-09-09T19:06:58.210Z,100483.94
2022-09-09T19:09:32.468Z,100485.94
2022-09-09T19:12:00.766Z,100488.00
2022-09-09T19:14:29.222Z,100487.34
2022-09-09T19:16:57.238Z,100480.78
2022-09-09T19:19:28.836Z,100479.78
2022-09-09T19:21:59.342Z,100486.91
2022-09-09T19:24:30.400Z,100491.31
2022-09-09T19:27:01.957Z,100488.69
2022-09-09T19:29:32.384Z,100490.13
2022-09-09T19:32:42.419Z,100486.69
2022-09-09T19:34:51.069Z,100487.19
2022-09-09T19:37:19.435Z,100488.47
2022-09-09T19:39:47.938Z,100479.72
2022-09-09T19:42:16.210Z,100479.53
2022-09-09T19:44:44.112Z,100482.06
2022-09-09T19:47:14.266Z,100484.06
2022-09-09T19:49:46.714Z,100489.06
2022-09-09T19:52:16.174Z,100489.59
2022-09-09T19:54:45.138Z,100487.91
2022-09-09T19:57:13.915Z,100489.59
2022-09-09T19:59:41.743Z,100489.75
2022-09-09T20:02:15.434Z,100487.75
2022-09-09T20:04:44.641Z,100484.00
2022-09-09T20:07:13.148Z,100483.13
2022-09-09T20:09:40.744Z,100492.16
2022-09-09T20:12:08.755Z,100489.19
2022-09-09T20:14:39.570Z,100489.19
2022-09-09T20:17:07.958Z,100489.47
2022-09-09T20:19:35.966Z,100474.03
2022-09-09T20:22:03.648Z,100469.41
2022-09-09T20:24:31.374Z,100472.69
2022-09-09T20:26:59.289Z,100474.47
2022-09-09T20:29:26.815Z,100472.38
2022-09-09T20:31:54.513Z,100478.56
2022-09-09T20:34:22.907Z,100477.50
2022-09-09T20:36:51.058Z,100472.56
2022-09-09T20:39:20.786Z,100471.00
2022-09-09T20:41:49.899Z,100473.25
2022-09-09T20:44:20.106Z,100472.19
2022-09-09T20:46:52.589Z,100471.19
2022-09-09T20:49:23.020Z,100472.13
2022-09-09T20:51:51.856Z,100479.81
2022-09-09T20:54:30.227Z,100487.03
2022-09-09T20:56:59.886Z,100492.31
2022-09-09T20:59:31.600Z,100487.75
2022-09-09T21:02:00.935Z,100499.28
2022-09-09T21:04:29.198Z,100486.25
2022-09-09T21:06:56.969Z,100494.66
2022-09-09T21:09:24.890Z,100496.72
2022-09-09T21:11:53.720Z,100495.94
2022-09-09T21:14:22.305Z,100508.47
2022-09-09T21:16:50.275Z,100504.19
2022-09-09T21:19:17.851Z,100507.38
2022-09-09T21:21:47.693Z,100503.75
2022-09-09T21:24:15.646Z,100503.28
2022-09-09T21:26:43.330Z,100505.19
2022-09-09T21:29:11.330Z,100511.38
2022-09-09T21:31:39.280Z,100530.97
2022-09-09T21:34:07.306Z,100517.81
2022-09-09T21:36:35.480Z,100514.66
2022-09-09T21:39:03.259Z,100513.34
2022-09-09T21:41:31.021Z,100513.88
2022-09-09T21:43:58.704Z,100503.22
2022-09-09T21:46:28.206Z,100502.25
2022-09-09T21:48:57.513Z,100503.94
2022-09-09T21:51:25.746Z,100508.75
2022-09-09T21:53:58.518Z,100500.06
2022-09-09T21:56:26.760Z,100502.31
2022-09-09T21:59:03.912Z,100496.38
2022-09-09T22:01:35.273Z,100501.97
2022-09-09T22:04:03.699Z,100505.47
2022-09-09T22:06:31.464Z,100504.47
2022-09-09T22:08:59.411Z,100501.91
2022-09-09T22:11:28.095Z,100507.16
2022-09-09T22:13:55.979Z,100504.59
2022-09-09T22:16:24.030Z,100503.69
2022-09-09T22:18:54.706Z,100506.78
2022-09-09T22:21:22.777Z,100502.31
2022-09-09T22:23:55.515Z,100499.53
2022-09-09T22:26:24.467Z,100494.94
2022-09-09T22:28:53.855Z,100492.84
2022-09-09T22:31:22.785Z,100500.38
2022-09-09T22:33:52.028Z,100496.97
2022-09-09T22:36:20.945Z,100498.09
2022-09-09T22:38:50.219Z,100488.47
2022-09-09T22:41:18.943Z,100505.53
2022-09-09T22:43:47.076Z,100506.97
2022-09-09T22:46:14.967Z,100510.06
2022-09-09T22:48:43.835Z,100511.44
2022-09-09T22:51:14.600Z,100502.69
2022-09-09T22:53:44.726Z,100501.78
2022-09-09T22:56:17.855Z,100501.25
2022-09-09T22:58:46.397Z,100503.88
2022-09-09T23:01:17.681Z,100488.25
2022-09-09T23:03:46.550Z,100482.06
2022-09-09T23:06:23.092Z,100482.13
2022-09-09T23:08:56.521Z,100479.84
2022-09-09T23:11:31.065Z,100472.91
2022-09-09T23:14:01.691Z,100474.00
2022-09-09T23:16:33.814Z,100480.38
2022-09-09T23:19:02.042Z,100467.78
2022-09-09T23:21:31.226Z,100465.13
2022-09-09T23:24:00.140Z,100474.66
2022-09-09T23:26:29.915Z,100467.13
2022-09-09T23:28:59.780Z,100474.00
2022-09-09T23:31:34.125Z,100463.69
2022-09-09T23:34:02.313Z,100461.19
2022-09-09T23:36:30.944Z,100459.09
2022-09-09T23:39:04.322Z,100465.28
2022-09-09T23:41:35.328Z,100472.38
2022-09-09T23:44:04.575Z,100466.44
2022-09-09T23:46:33.859Z,100462.91
2022-09-09T23:49:02.706Z,100461.47
2022-09-09T23:51:32.192Z,100467.63
2022-09-09T23:54:03.023Z,100464.47
2022-09-09T23:56:33.958Z,100473.69
2022-09-09T23:59:01.629Z,100474.41
